createdAt,value
2018-08-30T00:00:20.796Z,9.48
2018-08-30T00:01:24.967Z,10.70
2018-08-30T00:02:29.141Z,10.10
2018-08-30T00:03:33.307Z,11.15
2018-08-30T00:04:37.523Z,10.32
2018-08-30T00:05:42.239Z,11.22
2018-08-30T00:06:46.431Z,11.03
2018-08-30T00:07:50.648Z,10.40
2018-08-30T00:08:54.789Z,11.70
2018-08-30T00:09:58.939Z,12.13
2018-08-30T00:11:03.098Z,11.28
2018-08-30T00:12:07.536Z,12.47
2018-08-30T00:13:11.719Z,13.60
2018-08-30T00:14:15.966Z,13.65
2018-08-30T00:15:20.115Z,13.10
2018-08-30T00:16:24.377Z,14.33
2018-08-30T00:17:28.497Z,13.53
2018-08-30T00:18:32.696Z,15.30
2018-08-30T00:19:36.898Z,16.42
2018-08-30T00:20:41.323Z,16.57
2018-08-30T00:21:45.497Z,14.80
2018-08-30T00:22:49.727Z,16.00
2018-08-30T00:23:53.893Z,15.75
2018-08-30T00:24:58.256Z,14.58
2018-08-30T00:26:02.620Z,16.02
2018-08-30T00:27:07.066Z,13.95
2018-08-30T00:28:11.270Z,13.70
2018-08-30T00:29:15.443Z,14.53
2018-08-30T00:30:19.677Z,15.48
2018-08-30T00:31:23.834Z,17.67
2018-08-30T00:32:28.115Z,17.07
2018-08-30T00:33:32.285Z,16.82
2018-08-30T00:34:36.471Z,15.48
2018-08-30T00:35:41.648Z,17.52
2018-08-30T00:36:45.816Z,17.85
2018-08-30T00:37:50.132Z,17.73
2018-08-30T00:38:54.305Z,17.87
2018-08-30T00:39:58.507Z,16.93
2018-08-30T00:41:02.659Z,18.17
2018-08-30T00:42:06.859Z,18.15
2018-08-30T00:43:11.085Z,17.55
2018-08-30T00:44:15.231Z,16.62
2018-08-30T00:45:19.691Z,17.82
2018-08-30T00:46:23.846Z,20.72
2018-08-30T00:47:28.059Z,19.45
2018-08-30T00:48:32.318Z,19.48
2018-08-30T00:49:36.628Z,20.82
2018-08-30T00:50:41.019Z,18.48
2018-08-30T00:51:45.209Z,20.40
2018-08-30T00:52:49.399Z,19.02
2018-08-30T00:53:53.620Z,18.82
2018-08-30T00:54:58.007Z,19.10
2018-08-30T00:56:02.183Z,19.23
2018-08-30T00:57:06.439Z,19.98
2018-08-30T00:58:10.613Z,20.52
2018-08-30T00:59:14.750Z,21.07
2018-08-30T01:00:18.984Z,19.80
2018-08-30T01:01:23.226Z,20.60
2018-08-30T01:02:27.422Z,22.10
2018-08-30T01:03:31.591Z,20.20
2018-08-30T01:04:35.762Z,20.37
2018-08-30T01:05:39.918Z,23.02
2018-08-30T01:06:44.144Z,19.85
2018-08-30T01:07:51.312Z,19.95
2018-08-30T01:08:55.555Z,19.32
2018-08-30T01:09:59.714Z,21.02
2018-08-30T01:11:03.997Z,20.25
2018-08-30T01:12:08.166Z,17.75
2018-08-30T01:13:12.589Z,19.30
2018-08-30T01:14:16.749Z,20.57
2018-08-30T01:15:21.571Z,21.73
2018-08-30T01:16:25.736Z,20.60
2018-08-30T01:17:30.031Z,19.77
2018-08-30T01:18:34.208Z,19.77
2018-08-30T01:19:38.432Z,21.55
2018-08-30T01:20:42.600Z,19.37
2018-08-30T01:21:46.783Z,18.77
2018-08-30T01:22:51.049Z,19.65
2018-08-30T01:23:55.215Z,21.87
2018-08-30T01:24:59.403Z,21.05
2018-08-30T01:26:03.582Z,21.20
2018-08-30T01:27:14.395Z,21.65
2018-08-30T01:28:18.573Z,20.90
2018-08-30T01:29:22.743Z,21.45
2018-08-30T01:30:26.923Z,22.13
2018-08-30T01:31:31.142Z,20.37
2018-08-30T01:32:35.613Z,23.00
2018-08-30T01:33:39.876Z,22.25
2018-08-30T01:34:44.049Z,21.00
2018-08-30T01:35:48.270Z,21.55
2018-08-30T01:36:52.419Z,21.62
2018-08-30T01:37:56.584Z,21.97
2018-08-30T01:39:00.771Z,22.20
2018-08-30T01:40:05.192Z,23.12
2018-08-30T01:41:09.334Z,20.97
2018-08-30T01:42:13.672Z,20.70
2018-08-30T01:43:17.845Z,23.25
2018-08-30T01:44:22.032Z,23.80
2018-08-30T01:45:26.187Z,22.80
2018-08-30T01:46:30.628Z,21.33
2018-08-30T01:47:34.794Z,21.55
2018-08-30T01:48:38.945Z,23.10
2018-08-30T01:49:43.346Z,22.02
2018-08-30T01:50:47.502Z,23.90
2018-08-30T01:51:51.735Z,22.00
2018-08-30T01:52:55.910Z,22.13
2018-08-30T01:54:00.112Z,22.90
2018-08-30T01:55:04.534Z,21.10
2018-08-30T01:56:08.707Z,22.30
2018-08-30T01:57:13.141Z,23.05
2018-08-30T01:58:17.312Z,23.95
2018-08-30T01:59:21.488Z,23.85
2018-08-30T02:00:25.704Z,23.32
2018-08-30T02:01:29.837Z,23.92
2018-08-30T02:02:34.005Z,22.60
2018-08-30T02:03:38.172Z,21.33
2018-08-30T02:04:42.482Z,23.12
2018-08-30T02:05:46.687Z,21.90
2018-08-30T02:06:50.867Z,23.83
2018-08-30T02:07:55.168Z,21.80
2018-08-30T02:08:59.564Z,22.27
2018-08-30T02:10:03.786Z,21.48
2018-08-30T02:11:07.977Z,23.30
2018-08-30T02:12:12.333Z,23.22
2018-08-30T02:13:16.506Z,23.35
2018-08-30T02:14:20.799Z,24.32
2018-08-30T02:15:25.109Z,22.62
2018-08-30T02:16:29.498Z,24.07
2018-08-30T02:17:33.707Z,24.40
2018-08-30T02:18:37.870Z,23.18
2018-08-30T02:19:42.018Z,24.92
2018-08-30T02:20:46.183Z,26.07
2018-08-30T02:21:50.375Z,23.65
2018-08-30T02:22:54.506Z,24.25
2018-08-30T02:23:58.655Z,24.12
2018-08-30T02:25:02.839Z,24.02
2018-08-30T02:26:07.185Z,24.47
2018-08-30T02:27:11.381Z,25.95
2018-08-30T02:28:15.518Z,24.10
2018-08-30T02:29:19.976Z,25.20
2018-08-30T02:30:24.145Z,25.37
2018-08-30T02:31:28.347Z,25.62
2018-08-30T02:32:32.523Z,23.98
2018-08-30T02:33:36.749Z,25.90
2018-08-30T02:34:40.920Z,26.30
2018-08-30T02:35:45.096Z,26.55
2018-08-30T02:36:49.294Z,29.27
2018-08-30T02:37:53.499Z,26.68
2018-08-30T02:38:57.894Z,27.32
2018-08-30T02:40:02.091Z,28.75
2018-08-30T02:41:06.379Z,27.13
2018-08-30T02:42:10.561Z,29.65
2018-08-30T02:43:14.730Z,27.73
2018-08-30T02:44:19.142Z,28.83
2018-08-30T02:45:23.499Z,29.35
2018-08-30T02:46:27.655Z,28.00
2018-08-30T02:47:31.980Z,29.35
2018-08-30T02:48:36.171Z,27.20
2018-08-30T02:49:40.371Z,28.73
2018-08-30T02:50:44.694Z,27.42
2018-08-30T02:51:48.894Z,28.73
2018-08-30T02:52:53.423Z,29.18
2018-08-30T02:53:57.644Z,29.95
2018-08-30T02:55:01.888Z,28.32
2018-08-30T02:56:06.359Z,27.42
2018-08-30T02:57:10.541Z,28.00
2018-08-30T02:58:14.718Z,29.10
2018-08-30T02:59:18.879Z,28.38
2018-08-30T03:00:23.824Z,29.10
2018-08-30T03:01:28.122Z,28.47
2018-08-30T03:02:34.027Z,27.07
2018-08-30T03:03:38.235Z,28.52
2018-08-30T03:04:42.443Z,29.05
2018-08-30T03:05:46.771Z,29.77
2018-08-30T03:06:50.927Z,27.73
2018-08-30T03:07:55.072Z,28.80
2018-08-30T03:08:59.260Z,27.75
2018-08-30T03:10:03.471Z,28.20
2018-08-30T03:11:07.916Z,29.35
2018-08-30T03:12:12.074Z,27.62
2018-08-30T03:13:16.283Z,30.37
2018-08-30T03:14:20.444Z,29.92
2018-08-30T03:15:24.670Z,29.40
2018-08-30T03:16:28.835Z,28.25
2018-08-30T03:17:33.080Z,29.07
2018-08-30T03:18:37.287Z,29.80
2018-08-30T03:19:41.522Z,28.50
2018-08-30T03:20:45.729Z,29.10
2018-08-30T03:21:49.893Z,30.40
2018-08-30T03:22:54.124Z,27.87
2018-08-30T03:23:58.287Z,28.32
2018-08-30T03:25:02.679Z,27.95
2018-08-30T03:26:07.429Z,26.68
2018-08-30T03:27:11.570Z,28.77
2018-08-30T03:28:15.780Z,28.73
2018-08-30T03:29:20.053Z,29.77
2018-08-30T03:30:24.330Z,30.62
2018-08-30T03:31:28.413Z,28.80
2018-08-30T03:32:32.579Z,28.20
2018-08-30T03:33:36.714Z,28.55
2018-08-30T03:34:40.977Z,29.72
2018-08-30T03:35:45.356Z,29.42
2018-08-30T03:36:49.735Z,31.82
2018-08-30T03:37:53.888Z,27.95
2018-08-30T03:38:58.104Z,29.85
2018-08-30T03:40:02.285Z,28.52
2018-08-30T03:41:06.747Z,29.85
2018-08-30T03:42:11.130Z,28.83
2018-08-30T03:43:15.263Z,28.38
2018-08-30T03:44:19.443Z,26.57
2018-08-30T03:45:23.678Z,27.95
2018-08-30T03:46:27.996Z,28.07
2018-08-30T03:47:32.797Z,29.77
2018-08-30T03:48:36.962Z,29.20
2018-08-30T03:49:41.555Z,27.45
2018-08-30T03:50:45.844Z,29.37
2018-08-30T03:51:50.004Z,28.57
2018-08-30T03:52:54.295Z,27.42
2018-08-30T03:53:58.511Z,28.40
2018-08-30T03:55:02.955Z,29.57
2018-08-30T03:56:07.331Z,29.02
2018-08-30T03:57:11.491Z,30.60
2018-08-30T03:58:15.720Z,29.12
2018-08-30T03:59:19.891Z,29.70
2018-08-30T04:00:24.134Z,29.65
2018-08-30T04:01:28.327Z,30.88
2018-08-30T04:02:32.531Z,27.77
2018-08-30T04:03:36.731Z,30.27
2018-08-30T04:04:40.974Z,27.75
2018-08-30T04:05:45.130Z,29.20
2018-08-30T04:06:49.330Z,28.47
2018-08-30T04:07:53.588Z,28.30
2018-08-30T04:08:57.800Z,31.45
2018-08-30T04:10:02.103Z,31.77
2018-08-30T04:11:06.477Z,29.23
2018-08-30T04:12:10.661Z,30.23
2018-08-30T04:13:14.925Z,32.38
2018-08-30T04:14:19.216Z,29.65
2018-08-30T04:15:23.408Z,33.05
2018-08-30T04:16:27.583Z,32.67
2018-08-30T04:17:31.746Z,30.30
2018-08-30T04:18:35.945Z,31.40
2018-08-30T04:19:40.166Z,29.12
2018-08-30T04:20:44.357Z,30.20
2018-08-30T04:21:48.510Z,31.15
2018-08-30T04:22:52.699Z,28.75
2018-08-30T04:23:56.907Z,31.85
2018-08-30T04:25:01.107Z,30.65
2018-08-30T04:26:05.748Z,29.98
2018-08-30T04:27:09.945Z,33.78
2018-08-30T04:28:14.112Z,30.48
2018-08-30T04:29:18.284Z,31.50
2018-08-30T04:30:22.511Z,29.45
2018-08-30T04:31:27.125Z,31.40
2018-08-30T04:32:31.270Z,31.80
2018-08-30T04:33:35.655Z,30.23
2018-08-30T04:34:39.967Z,31.33
2018-08-30T04:35:44.390Z,31.55
2018-08-30T04:36:48.569Z,31.62
2018-08-30T04:37:52.770Z,32.25
2018-08-30T04:38:57.864Z,32.73
2018-08-30T04:40:02.088Z,34.40
2018-08-30T04:41:06.536Z,33.45
2018-08-30T04:42:10.986Z,34.33
2018-08-30T04:43:15.260Z,34.05
2018-08-30T04:44:19.448Z,32.17
2018-08-30T04:45:23.687Z,32.33
2018-08-30T04:46:27.903Z,33.08
2018-08-30T04:47:32.124Z,33.80
2018-08-30T04:48:36.845Z,31.68
2018-08-30T04:49:41.140Z,33.50
2018-08-30T04:50:45.320Z,33.08
2018-08-30T04:51:49.510Z,35.83
2018-08-30T04:52:53.702Z,32.67
2018-08-30T04:53:58.022Z,32.17
2018-08-30T04:55:02.448Z,34.00
2018-08-30T04:56:06.893Z,33.30
2018-08-30T04:57:11.105Z,34.00
2018-08-30T04:58:15.295Z,34.50
2018-08-30T04:59:19.477Z,36.17
2018-08-30T05:00:23.681Z,33.55
2018-08-30T05:01:27.839Z,31.35
2018-08-30T05:02:32.049Z,35.10
2018-08-30T05:03:36.231Z,33.23
2018-08-30T05:04:40.448Z,32.48
2018-08-30T05:05:44.658Z,32.65
2018-08-30T05:06:48.838Z,32.55
2018-08-30T05:07:53.067Z,35.25
2018-08-30T05:08:57.216Z,32.45
2018-08-30T05:10:01.563Z,33.58
2018-08-30T05:11:05.719Z,33.35
2018-08-30T05:12:09.888Z,32.55
2018-08-30T05:13:14.197Z,32.80
2018-08-30T05:14:18.357Z,32.25
2018-08-30T05:15:22.587Z,33.70
2018-08-30T05:16:26.800Z,32.88
2018-08-30T05:17:30.930Z,34.35
2018-08-30T05:18:35.146Z,33.67
2018-08-30T05:19:39.427Z,34.27
2018-08-30T05:20:43.570Z,33.10
2018-08-30T05:21:47.725Z,34.25
2018-08-30T05:22:51.982Z,32.90
2018-08-30T05:23:56.350Z,35.23
2018-08-30T05:25:00.726Z,34.40
2018-08-30T05:26:04.965Z,34.08
2018-08-30T05:27:09.118Z,31.70
2018-08-30T05:28:13.297Z,32.48
2018-08-30T05:29:19.302Z,31.12
2018-08-30T05:30:23.547Z,34.08
2018-08-30T05:31:27.723Z,33.33
2018-08-30T05:32:32.141Z,33.55
2018-08-30T05:33:36.299Z,35.35
2018-08-30T05:34:40.529Z,33.83
2018-08-30T05:35:44.766Z,33.60
2018-08-30T05:36:48.930Z,34.38
2018-08-30T05:37:53.121Z,32.30
2018-08-30T05:39:04.367Z,34.35
2018-08-30T05:40:08.579Z,31.12
2018-08-30T05:41:12.783Z,32.00
2018-08-30T05:42:16.963Z,31.93
2018-08-30T05:43:21.361Z,32.58
2018-08-30T05:44:25.872Z,34.78
2018-08-30T05:45:30.067Z,33.10
2018-08-30T05:46:34.283Z,33.48
2018-08-30T05:47:38.467Z,33.65
2018-08-30T05:48:42.628Z,34.95
2018-08-30T05:49:46.798Z,30.25
2018-08-30T05:50:51.188Z,32.38
2018-08-30T05:51:55.396Z,32.25
2018-08-30T05:52:59.562Z,31.80
2018-08-30T05:54:03.743Z,31.80
2018-08-30T05:55:07.939Z,32.40
2018-08-30T05:56:12.324Z,33.55
2018-08-30T05:57:16.541Z,30.17
2018-08-30T05:58:20.751Z,29.67
2018-08-30T05:59:25.362Z,30.00
2018-08-30T06:00:29.564Z,27.32
2018-08-30T06:01:33.832Z,28.73
2018-08-30T06:02:37.999Z,29.72
2018-08-30T06:03:42.180Z,29.85
2018-08-30T06:04:46.344Z,29.45
2018-08-30T06:05:50.639Z,32.55
2018-08-30T06:06:54.837Z,27.25
2018-08-30T06:07:59.021Z,27.75
2018-08-30T06:09:03.275Z,28.27
2018-08-30T06:10:07.497Z,28.73
2018-08-30T06:11:11.679Z,28.20
2018-08-30T06:12:15.867Z,27.27
2018-08-30T06:13:20.048Z,29.07
2018-08-30T06:14:24.299Z,27.75
2018-08-30T06:15:28.610Z,28.70
2018-08-30T06:16:34.142Z,28.40
2018-08-30T06:17:39.254Z,27.58
2018-08-30T06:18:43.972Z,26.15
2018-08-30T06:19:48.431Z,26.80
2018-08-30T06:20:52.806Z,26.45
2018-08-30T06:21:58.091Z,26.77
2018-08-30T06:23:02.696Z,26.20
2018-08-30T06:24:07.781Z,24.60
2018-08-30T06:25:12.003Z,25.00
2018-08-30T06:26:16.918Z,24.70
2018-08-30T06:27:22.224Z,24.18
2018-08-30T06:28:27.599Z,24.02
2018-08-30T06:29:33.548Z,23.70
2018-08-30T06:30:38.761Z,25.15
2018-08-30T06:31:43.038Z,25.65
2018-08-30T06:32:47.306Z,23.47
2018-08-30T06:33:51.652Z,24.52
2018-08-30T06:34:56.012Z,23.10
2018-08-30T06:36:01.867Z,26.15
2018-08-30T06:37:08.592Z,26.35
2018-08-30T06:38:12.931Z,24.85
2018-08-30T06:39:17.595Z,24.77
2018-08-30T06:40:22.130Z,27.45
2018-08-30T06:41:26.870Z,24.35
2018-08-30T06:42:32.180Z,23.60
2018-08-30T06:43:37.331Z,23.18
2018-08-30T06:44:41.841Z,22.42
2018-08-30T06:45:48.984Z,24.07
2018-08-30T06:46:54.262Z,24.00
2018-08-30T06:47:58.495Z,22.48
2018-08-30T06:49:02.810Z,23.50
2018-08-30T06:50:07.933Z,23.95
2018-08-30T06:51:13.960Z,21.93
2018-08-30T06:52:18.262Z,21.55
2018-08-30T06:53:22.496Z,19.35
2018-08-30T06:54:26.803Z,19.80
2018-08-30T06:55:31.415Z,19.07
2018-08-30T06:56:35.827Z,17.92
2018-08-30T06:57:41.144Z,21.87
2018-08-30T06:58:45.652Z,17.82
2018-08-30T06:59:50.134Z,19.45
2018-08-30T07:00:54.736Z,20.20
2018-08-30T07:02:00.181Z,15.98
2018-08-30T07:03:05.474Z,17.27
2018-08-30T07:04:11.488Z,18.17
2018-08-30T07:05:16.157Z,17.42
2018-08-30T07:06:20.727Z,17.00
2018-08-30T07:07:25.281Z,17.40
2018-08-30T07:08:29.931Z,17.50
2018-08-30T07:09:34.562Z,16.73
2018-08-30T07:10:39.757Z,17.45
2018-08-30T07:11:44.708Z,16.60
2018-08-30T07:12:49.134Z,18.00
2018-08-30T07:13:53.884Z,16.75
2018-08-30T07:14:58.592Z,16.85
2018-08-30T07:16:03.554Z,16.23
2018-08-30T07:17:08.498Z,14.78
2018-08-30T07:18:13.760Z,15.72
2018-08-30T07:19:19.012Z,16.62
2018-08-30T07:20:23.940Z,16.37
2018-08-30T07:21:28.129Z,16.10
2018-08-30T07:22:32.327Z,15.80
2018-08-30T07:23:37.808Z,16.05
2018-08-30T07:24:42.597Z,16.37
2018-08-30T07:25:46.889Z,14.70
2018-08-30T07:26:52.368Z,14.38
2018-08-30T07:27:58.064Z,15.70
2018-08-30T07:29:03.458Z,14.63
2018-08-30T07:30:11.885Z,15.70
2018-08-30T07:31:17.355Z,14.90
2018-08-30T07:32:23.886Z,13.32
2018-08-30T07:33:30.241Z,15.48
2018-08-30T07:34:34.479Z,14.13
2018-08-30T07:35:38.721Z,14.45
2018-08-30T07:36:42.908Z,13.58
2018-08-30T07:37:47.112Z,13.10
2018-08-30T07:38:51.273Z,13.10
2018-08-30T07:39:55.452Z,13.00
2018-08-30T07:40:59.632Z,13.05
2018-08-30T07:42:03.829Z,12.70
2018-08-30T07:43:07.995Z,11.40
2018-08-30T07:44:12.777Z,12.88
2018-08-30T07:45:17.163Z,11.50
2018-08-30T07:46:21.303Z,11.83
2018-08-30T07:47:25.492Z,11.80
2018-08-30T07:48:29.653Z,11.97
2018-08-30T07:49:33.828Z,12.55
2018-08-30T07:50:38.025Z,10.50
2018-08-30T07:51:42.211Z,11.40
2018-08-30T07:52:46.379Z,12.07
2018-08-30T07:53:50.720Z,11.12
2018-08-30T07:54:55.215Z,10.35
2018-08-30T07:55:59.347Z,10.60
2018-08-30T07:57:03.802Z,10.10
2018-08-30T07:58:08.036Z,11.60
2018-08-30T07:59:12.241Z,10.53
2018-08-30T08:00:17.560Z,10.43
2018-08-30T08:01:21.743Z,10.05
2018-08-30T08:02:25.920Z,10.03
2018-08-30T08:03:30.115Z,9.40
2018-08-30T08:04:34.311Z,10.75
2018-08-30T08:05:38.551Z,10.80
2018-08-30T08:06:42.800Z,9.60
2018-08-30T08:07:47.113Z,8.68
2018-08-30T08:08:51.327Z,9.93
2018-08-30T08:09:55.524Z,10.20
2018-08-30T08:10:59.736Z,9.75
2018-08-30T08:12:04.141Z,9.63
2018-08-30T08:13:08.340Z,9.20
2018-08-30T08:14:12.544Z,10.82
2018-08-30T08:15:16.783Z,9.20
2018-08-30T08:16:21.212Z,8.05
2018-08-30T08:17:25.466Z,8.23
2018-08-30T08:18:29.802Z,7.85
2018-08-30T08:19:34.247Z,8.40
2018-08-30T08:20:38.800Z,9.05
2018-08-30T08:21:43.003Z,8.25
2018-08-30T08:22:47.309Z,8.85
2018-08-30T08:23:51.448Z,7.62
2018-08-30T08:24:55.626Z,7.75
2018-08-30T08:25:59.830Z,8.23
2018-08-30T08:27:04.136Z,7.70
2018-08-30T08:28:09.024Z,8.93
2018-08-30T08:29:13.211Z,8.58
2018-08-30T08:30:17.414Z,8.05
2018-08-30T08:31:21.615Z,8.45
2018-08-30T08:32:25.830Z,7.90
2018-08-30T08:33:30.107Z,8.18
2018-08-30T08:34:34.396Z,7.25
2018-08-30T08:35:38.693Z,6.95
2018-08-30T08:36:42.897Z,6.50
2018-08-30T08:37:47.115Z,6.85
2018-08-30T08:38:51.294Z,6.95
2018-08-30T08:39:55.515Z,7.55
2018-08-30T08:41:00.074Z,8.55
2018-08-30T08:42:04.300Z,7.03
2018-08-30T08:43:08.630Z,6.65
2018-08-30T08:44:12.802Z,6.08
2018-08-30T08:45:17.059Z,6.92
2018-08-30T08:46:21.259Z,6.60
2018-08-30T08:47:25.420Z,6.20
2018-08-30T08:48:29.663Z,5.58
2018-08-30T08:49:33.903Z,5.42
2018-08-30T08:50:38.090Z,6.15
2018-08-30T08:51:42.299Z,5.70
2018-08-30T08:52:46.523Z,5.70
2018-08-30T08:53:50.868Z,5.58
2018-08-30T08:54:57.050Z,5.85
2018-08-30T08:56:01.291Z,5.92
2018-08-30T08:57:05.801Z,5.10
2018-08-30T08:58:10.107Z,6.40
2018-08-30T08:59:14.441Z,6.30
2018-08-30T09:00:18.586Z,5.33
2018-08-30T09:01:22.755Z,5.53
2018-08-30T09:02:26.905Z,5.90
2018-08-30T09:03:31.120Z,5.50
2018-08-30T09:04:35.408Z,4.45
2018-08-30T09:05:40.328Z,4.95
2018-08-30T09:06:44.535Z,4.67
2018-08-30T09:07:49.083Z,4.75
2018-08-30T09:08:53.250Z,4.35
2018-08-30T09:09:58.260Z,5.97
2018-08-30T09:11:02.575Z,4.75
2018-08-30T09:12:06.767Z,5.85
2018-08-30T09:13:10.982Z,5.33
2018-08-30T09:14:15.271Z,4.80
2018-08-30T09:15:19.462Z,5.05
2018-08-30T09:16:23.655Z,5.60
2018-08-30T09:17:27.795Z,5.22
2018-08-30T09:18:32.128Z,5.10
2018-08-30T09:19:36.259Z,4.40
2018-08-30T09:20:40.490Z,4.75
2018-08-30T09:21:44.642Z,5.25
2018-08-30T09:22:48.790Z,4.33
2018-08-30T09:23:53.002Z,5.67
2018-08-30T09:24:57.138Z,5.17
2018-08-30T09:26:01.315Z,5.03
2018-08-30T09:27:05.532Z,6.35
2018-08-30T09:28:09.799Z,4.90
2018-08-30T09:29:13.966Z,6.50
2018-08-30T09:30:18.100Z,4.90
2018-08-30T09:31:22.552Z,4.90
2018-08-30T09:32:26.902Z,4.42
2018-08-30T09:33:31.073Z,4.17
2018-08-30T09:34:35.378Z,5.12
2018-08-30T09:35:39.628Z,4.00
2018-08-30T09:36:43.813Z,6.12
2018-08-30T09:37:47.951Z,4.28
2018-08-30T09:38:52.167Z,4.90
2018-08-30T09:39:56.307Z,4.08
2018-08-30T09:41:00.633Z,4.37
2018-08-30T09:42:04.941Z,4.55
2018-08-30T09:43:09.311Z,3.75
2018-08-30T09:44:13.515Z,3.72
2018-08-30T09:45:17.684Z,3.67
2018-08-30T09:46:21.861Z,3.70
2018-08-30T09:47:26.051Z,4.12
2018-08-30T09:48:30.396Z,4.30
2018-08-30T09:49:34.575Z,3.70
2018-08-30T09:50:38.715Z,3.30
2018-08-30T09:51:42.904Z,4.47
2018-08-30T09:52:47.128Z,4.28
2018-08-30T09:53:51.484Z,4.28
2018-08-30T09:54:55.614Z,4.10
2018-08-30T09:55:59.785Z,4.55
2018-08-30T09:57:04.122Z,4.95
2018-08-30T09:58:08.583Z,4.78
2018-08-30T09:59:13.226Z,4.30
2018-08-30T10:00:22.880Z,3.98
2018-08-30T10:01:32.351Z,3.55
2018-08-30T10:02:56.043Z,4.10
2018-08-30T10:04:00.319Z,3.00
2018-08-30T10:05:04.494Z,4.05
2018-08-30T10:06:08.686Z,3.20
2018-08-30T10:07:13.506Z,3.20
2018-08-30T10:08:17.666Z,3.10
2018-08-30T10:09:21.906Z,4.42
2018-08-30T10:10:26.466Z,3.75
2018-08-30T10:11:30.620Z,3.75
2018-08-30T10:12:34.940Z,3.45
2018-08-30T10:13:39.113Z,3.70
2018-08-30T10:14:43.659Z,3.95
2018-08-30T10:15:47.867Z,2.85
2018-08-30T10:16:52.068Z,3.30
2018-08-30T10:17:56.214Z,3.08
2018-08-30T10:19:00.379Z,3.25
2018-08-30T10:20:04.684Z,3.05
2018-08-30T10:21:08.826Z,3.05
2018-08-30T10:22:13.062Z,2.70
2018-08-30T10:23:17.300Z,2.95
2018-08-30T10:24:21.496Z,2.70
2018-08-30T10:25:25.743Z,3.85
2018-08-30T10:26:29.868Z,2.98
2018-08-30T10:27:34.018Z,2.77
2018-08-30T10:28:38.164Z,2.65
2018-08-30T10:29:42.323Z,3.45
2018-08-30T10:30:46.519Z,2.70
2018-08-30T10:31:50.723Z,2.47
2018-08-30T10:32:54.922Z,2.77
2018-08-30T10:33:59.085Z,2.80
2018-08-30T10:35:04.539Z,2.45
2018-08-30T10:36:08.763Z,2.58
2018-08-30T10:37:12.907Z,2.30
2018-08-30T10:38:17.071Z,2.72
2018-08-30T10:39:21.395Z,2.60
2018-08-30T10:40:25.595Z,2.33
2018-08-30T10:41:29.810Z,2.80
2018-08-30T10:42:34.007Z,3.05
2018-08-30T10:43:38.236Z,2.40
2018-08-30T10:44:43.671Z,4.15
2018-08-30T10:45:47.839Z,2.30
2018-08-30T10:46:52.140Z,1.90
2018-08-30T10:47:56.274Z,2.75
2018-08-30T10:49:00.464Z,2.17
2018-08-30T10:50:04.680Z,3.50
2018-08-30T10:51:08.848Z,2.20
2018-08-30T10:52:13.283Z,2.62
2018-08-30T10:53:17.502Z,1.90
2018-08-30T10:54:21.702Z,1.95
2018-08-30T10:55:25.860Z,1.52
2018-08-30T10:56:30.206Z,2.25
2018-08-30T10:57:34.496Z,2.02
2018-08-30T10:58:38.915Z,2.40
2018-08-30T10:59:43.349Z,2.35
2018-08-30T11:00:48.468Z,2.10
2018-08-30T11:01:54.169Z,2.10
2018-08-30T11:02:59.393Z,2.22
2018-08-30T11:04:04.531Z,2.10
2018-08-30T11:05:09.371Z,2.00
2018-08-30T11:06:13.634Z,2.22
2018-08-30T11:07:18.119Z,2.30
2018-08-30T11:08:22.367Z,2.50
2018-08-30T11:09:26.687Z,2.40
2018-08-30T11:10:31.133Z,2.10
2018-08-30T11:11:35.372Z,1.98
2018-08-30T11:12:39.652Z,2.22
2018-08-30T11:13:45.215Z,2.55
2018-08-30T11:14:50.873Z,1.80
2018-08-30T11:15:55.537Z,2.20
2018-08-30T11:16:59.790Z,2.55
2018-08-30T11:18:04.362Z,2.77
2018-08-30T11:19:08.683Z,2.58
2018-08-30T11:20:12.847Z,3.35
2018-08-30T11:21:17.075Z,2.30
2018-08-30T11:22:21.244Z,1.80
2018-08-30T11:23:25.488Z,2.22
2018-08-30T11:24:29.934Z,1.90
2018-08-30T11:25:34.362Z,2.60
2018-08-30T11:26:38.619Z,2.58
2018-08-30T11:27:42.740Z,2.15
2018-08-30T11:28:48.444Z,2.00
2018-08-30T11:29:55.246Z,2.12
2018-08-30T11:31:00.373Z,2.40
2018-08-30T11:32:04.648Z,1.82
2018-08-30T11:33:09.979Z,2.30
2018-08-30T11:34:14.157Z,2.25
2018-08-30T11:35:20.050Z,2.12
2018-08-30T11:36:24.997Z,2.20
2018-08-30T11:37:30.366Z,2.00
2018-08-30T11:38:34.935Z,2.22
2018-08-30T11:39:39.134Z,2.25
2018-08-30T11:40:43.376Z,2.45
2018-08-30T11:41:47.836Z,2.62
2018-08-30T11:42:51.883Z,2.00
2018-08-30T11:43:56.054Z,2.35
2018-08-30T11:45:00.240Z,2.12
2018-08-30T11:46:04.444Z,2.37
2018-08-30T11:47:08.580Z,2.67
2018-08-30T11:48:12.717Z,2.22
2018-08-30T11:49:16.874Z,2.55
2018-08-30T11:50:21.060Z,2.87
2018-08-30T11:51:26.197Z,2.40
2018-08-30T11:52:30.396Z,2.40
2018-08-30T11:53:34.558Z,2.05
2018-08-30T11:54:38.751Z,2.40
2018-08-30T11:55:42.892Z,2.33
2018-08-30T11:56:53.612Z,2.17
2018-08-30T11:57:57.821Z,2.77
2018-08-30T11:59:04.297Z,2.58
2018-08-30T12:00:10.460Z,2.35
2018-08-30T12:01:15.372Z,2.65
2018-08-30T12:02:19.608Z,2.17
2018-08-30T12:03:24.220Z,2.50
2018-08-30T12:04:28.771Z,2.22
2018-08-30T12:05:33.441Z,2.22
2018-08-30T12:06:37.799Z,2.65
2018-08-30T12:07:42.663Z,2.70
2018-08-30T12:08:46.876Z,3.40
2018-08-30T12:09:51.066Z,2.45
2018-08-30T12:10:55.446Z,2.00
2018-08-30T12:12:01.001Z,2.40
2018-08-30T12:13:05.424Z,2.65
2018-08-30T12:14:09.578Z,2.27
2018-08-30T12:15:13.784Z,2.12
2018-08-30T12:16:18.133Z,2.22
2018-08-30T12:17:22.408Z,2.45
2018-08-30T12:18:26.622Z,2.00
2018-08-30T12:19:30.785Z,2.40
2018-08-30T12:20:35.046Z,2.87
2018-08-30T12:21:39.170Z,1.80
2018-08-30T12:22:43.341Z,2.95
2018-08-30T12:23:47.598Z,2.12
2018-08-30T12:24:51.751Z,2.37
2018-08-30T12:25:55.930Z,1.85
2018-08-30T12:27:00.132Z,1.67
2018-08-30T12:28:04.306Z,2.45
2018-08-30T12:29:08.664Z,2.10
2018-08-30T12:30:12.881Z,2.25
2018-08-30T12:31:17.115Z,2.00
2018-08-30T12:32:21.610Z,2.45
2018-08-30T12:33:25.806Z,2.20
2018-08-30T12:34:30.174Z,2.30
2018-08-30T12:35:34.419Z,2.67
2018-08-30T12:36:38.556Z,2.60
2018-08-30T12:37:42.673Z,2.27
2018-08-30T12:38:46.939Z,1.82
2018-08-30T12:39:51.157Z,3.15
2018-08-30T12:40:55.334Z,2.40
2018-08-30T12:41:59.464Z,2.45
2018-08-30T12:43:04.003Z,2.15
2018-08-30T12:44:08.349Z,1.95
2018-08-30T12:45:12.518Z,2.47
2018-08-30T12:46:16.773Z,2.00
2018-08-30T12:47:20.904Z,2.08
2018-08-30T12:48:25.129Z,1.92
2018-08-30T12:49:29.320Z,2.02
2018-08-30T12:50:33.584Z,2.25
2018-08-30T12:51:38.008Z,2.22
2018-08-30T12:52:41.999Z,2.17
2018-08-30T12:53:46.296Z,2.20
2018-08-30T12:54:50.441Z,2.30
2018-08-30T12:55:54.829Z,2.10
2018-08-30T12:57:00.023Z,2.22
2018-08-30T12:58:04.570Z,2.22
2018-08-30T12:59:14.606Z,2.08
2018-08-30T13:00:18.765Z,2.22
2018-08-30T13:01:23.071Z,2.60
2018-08-30T13:02:27.304Z,2.25
2018-08-30T13:03:31.377Z,2.05
2018-08-30T13:04:35.704Z,2.00
2018-08-30T13:05:39.997Z,2.30
2018-08-30T13:06:45.685Z,2.62
2018-08-30T13:07:49.918Z,2.40
2018-08-30T13:08:54.129Z,2.42
2018-08-30T13:09:58.343Z,2.40
2018-08-30T13:11:02.738Z,2.00
2018-08-30T13:12:07.037Z,1.95
2018-08-30T13:13:11.119Z,2.12
2018-08-30T13:14:15.640Z,2.05
2018-08-30T13:15:21.379Z,2.52
2018-08-30T13:16:25.541Z,1.80
2018-08-30T13:17:29.812Z,2.20
2018-08-30T13:18:34.165Z,2.65
2018-08-30T13:19:38.768Z,2.62
2018-08-30T13:20:42.942Z,2.08
2018-08-30T13:21:47.697Z,2.00
2018-08-30T13:22:51.964Z,1.85
2018-08-30T13:23:56.173Z,2.52
2018-08-30T13:25:00.722Z,2.00
2018-08-30T13:26:05.334Z,2.10
2018-08-30T13:27:09.750Z,2.50
2018-08-30T13:28:14.410Z,2.08
2018-08-30T13:29:18.830Z,2.58
2018-08-30T13:30:22.973Z,2.20
2018-08-30T13:31:27.673Z,2.25
2018-08-30T13:32:32.418Z,2.25
2018-08-30T13:33:36.567Z,2.58
2018-08-30T13:34:40.902Z,2.25
2018-08-30T13:35:44.884Z,2.37
2018-08-30T13:36:49.345Z,2.15
2018-08-30T13:37:53.502Z,2.40
2018-08-30T13:38:58.066Z,2.50
2018-08-30T13:40:03.697Z,2.30
2018-08-30T13:41:08.307Z,2.52
2018-08-30T13:42:13.183Z,2.25
2018-08-30T13:43:17.594Z,2.35
2018-08-30T13:44:24.171Z,2.20
2018-08-30T13:45:28.475Z,2.92
2018-08-30T13:46:34.968Z,2.98
2018-08-30T13:47:39.345Z,3.05
2018-08-30T13:48:44.593Z,2.55
2018-08-30T13:49:48.865Z,2.05
2018-08-30T13:50:53.074Z,2.40
2018-08-30T13:51:57.408Z,2.35
2018-08-30T13:53:01.863Z,2.77
2018-08-30T13:54:06.420Z,2.90
2018-08-30T13:55:10.397Z,2.15
2018-08-30T13:56:14.987Z,2.40
2018-08-30T13:57:19.080Z,1.98
2018-08-30T13:58:24.560Z,2.33
2018-08-30T13:59:29.303Z,2.80
2018-08-30T14:00:33.447Z,2.55
2018-08-30T14:01:37.502Z,2.50